createdAt,value
2019-04-28T00:01:52.234Z,9.22
2019-04-28T00:04:21.482Z,9.22
2019-04-28T00:06:51.561Z,9.16
2019-04-28T00:12:01.544Z,9.09
2019-04-28T00:14:31.559Z,9.11
2019-04-28T00:17:01.102Z,9.17
2019-04-28T00:19:31.006Z,9.15
2019-04-28T00:25:07.649Z,9.00
2019-04-28T00:27:35.917Z,9.11
2019-04-28T00:30:44.219Z,9.09
2019-04-28T00:33:12.502Z,9.10
2019-04-28T00:35:41.817Z,9.11
2019-04-28T00:38:11.526Z,9.09
2019-04-28T00:40:41.363Z,9.00
2019-04-28T00:43:10.899Z,8.96
2019-04-28T00:45:39.156Z,9.08
2019-04-28T00:48:07.406Z,9.05
2019-04-28T00:50:35.692Z,8.93
2019-04-28T00:53:03.986Z,8.97
2019-04-28T00:55:32.278Z,9.10
2019-04-28T00:58:00.994Z,9.06
2019-04-28T01:03:09.489Z,8.93
2019-04-28T01:05:37.755Z,8.91
2019-04-28T01:08:06.036Z,9.00
2019-04-28T01:10:34.318Z,8.99
2019-04-28T01:13:02.591Z,9.01
2019-04-28T01:20:59.633Z,9.04
2019-04-28T01:23:30.266Z,9.05
2019-04-28T01:26:00.071Z,9.14
2019-04-28T01:28:29.736Z,9.11
2019-04-28T01:31:19.361Z,8.87
2019-04-28T01:34:07.035Z,8.89
2019-04-28T01:39:24.269Z,9.02
2019-04-28T01:41:52.542Z,9.05
2019-04-28T01:44:20.821Z,8.97
2019-04-28T01:46:49.721Z,8.92
2019-04-28T01:49:19.719Z,8.91
2019-04-28T01:52:10.286Z,8.84
2019-04-28T01:54:40.074Z,8.71
2019-04-28T01:57:10.087Z,8.84
2019-04-28T01:59:39.735Z,8.91
2019-04-28T02:02:10.230Z,8.94
2019-04-28T02:04:40.264Z,9.00
2019-04-28T02:07:08.508Z,8.99
2019-04-28T02:09:36.783Z,8.94
2019-04-28T02:12:05.121Z,8.93
2019-04-28T02:14:33.408Z,8.83
2019-04-28T02:17:01.691Z,8.77
2019-04-28T02:19:30.556Z,8.65
2019-04-28T02:24:40.487Z,8.55
2019-04-28T02:27:10.571Z,8.51
2019-04-28T02:29:41.406Z,8.46
2019-04-28T02:34:49.869Z,8.48
2019-04-28T02:37:20.272Z,8.50
2019-04-28T02:39:50.238Z,8.49
2019-04-28T02:42:20.610Z,8.53
2019-04-28T02:44:50.425Z,8.52
2019-04-28T02:47:18.093Z,8.57
2019-04-28T02:50:05.464Z,8.53
2019-04-28T02:52:52.863Z,8.53
2019-04-28T02:55:21.408Z,8.47
2019-04-28T02:57:51.814Z,8.47
2019-04-28T03:01:06.799Z,8.54
2019-04-28T03:03:24.559Z,8.54
2019-04-28T03:05:52.835Z,8.49
2019-04-28T03:08:21.550Z,8.39
2019-04-28T03:10:51.266Z,8.55
2019-04-28T03:13:20.883Z,8.62
2019-04-28T03:15:51.507Z,8.64
2019-04-28T03:18:21.431Z,8.40
2019-04-28T03:21:23.760Z,8.53
2019-04-28T03:23:52.091Z,8.49
2019-04-28T03:29:50.410Z,8.64
2019-04-28T03:32:47.384Z,8.56
2019-04-28T03:35:06.906Z,8.61
2019-04-28T03:37:35.162Z,8.50
2019-04-28T03:43:14.329Z,8.55
2019-04-28T03:48:21.127Z,8.46
2019-04-28T03:50:51.378Z,8.43
2019-04-28T03:53:20.776Z,8.40
2019-04-28T03:55:51.288Z,8.49
2019-04-28T03:58:23.798Z,8.50
2019-04-28T04:00:50.861Z,8.46
2019-04-28T04:03:21.244Z,8.54
2019-04-28T04:05:51.005Z,8.54
2019-04-28T04:08:21.296Z,8.44
2019-04-28T04:11:10.873Z,8.50
2019-04-28T04:14:01.413Z,8.47
2019-04-28T04:16:50.082Z,8.60
2019-04-28T04:21:56.543Z,8.38
2019-04-28T04:24:24.816Z,8.36
2019-04-28T04:26:53.102Z,8.37
2019-04-28T04:29:21.755Z,8.45
2019-04-28T04:31:51.447Z,8.52
2019-04-28T04:34:20.245Z,8.50
2019-04-28T04:36:50.896Z,8.43
2019-04-28T04:39:20.688Z,8.29
2019-04-28T04:41:50.469Z,8.49
2019-04-28T04:44:21.052Z,8.57
2019-04-28T04:46:50.902Z,8.49
2019-04-28T04:49:21.472Z,8.47
2019-04-28T04:51:50.896Z,8.47
2019-04-28T04:54:20.517Z,8.47
2019-04-28T04:56:50.167Z,8.39
2019-04-28T04:59:20.317Z,8.42
2019-04-28T05:02:09.965Z,8.46
2019-04-28T05:07:19.563Z,8.56
2019-04-28T05:09:49.576Z,8.67
2019-04-28T05:12:19.519Z,8.65
2019-04-28T05:14:49.432Z,8.60
2019-04-28T05:17:17.934Z,8.57
2019-04-28T05:19:46.200Z,8.56
2019-04-28T05:27:42.392Z,8.48
2019-04-28T05:30:13.836Z,8.44
2019-04-28T05:32:45.375Z,8.26
2019-04-28T05:35:10.803Z,8.14
2019-04-28T05:37:40.473Z,8.20
2019-04-28T05:40:10.510Z,8.15
2019-04-28T05:45:18.279Z,8.31
2019-04-28T05:47:46.558Z,8.34
2019-04-28T05:58:30.832Z,8.06
2019-04-28T06:01:20.265Z,8.22
2019-04-28T06:11:55.110Z,8.21
2019-04-28T06:14:23.385Z,8.30
2019-04-28T06:16:51.651Z,8.35
2019-04-28T06:19:20.235Z,8.37
2019-04-28T06:21:49.915Z,8.19
2019-04-28T06:24:18.193Z,8.17
2019-04-28T06:26:46.467Z,8.12
2019-04-28T06:29:14.744Z,7.98
2019-04-28T06:31:43.015Z,8.13
2019-04-28T06:34:11.303Z,8.02
2019-04-28T06:36:39.583Z,8.12
2019-04-28T06:41:46.823Z,8.08
2019-04-28T06:44:15.118Z,8.00
2019-04-28T06:46:43.384Z,8.08
2019-04-28T06:49:11.654Z,8.05
2019-04-28T06:51:39.928Z,8.05
2019-04-28T06:54:08.198Z,8.19
2019-04-28T06:56:36.481Z,8.18
2019-04-28T06:59:04.880Z,8.13
2019-04-28T07:01:33.157Z,8.13
2019-04-28T07:04:01.436Z,8.18
2019-04-28T07:06:29.713Z,8.19
2019-04-28T07:08:57.986Z,8.17
2019-04-28T07:11:26.258Z,8.30
2019-04-28T07:13:54.531Z,8.34
2019-04-28T07:16:22.815Z,8.40
2019-04-28T07:18:51.083Z,8.35
2019-04-28T07:21:38.490Z,8.34
2019-04-28T07:24:06.766Z,8.21
2019-04-28T07:26:35.046Z,8.19
2019-04-28T07:29:03.325Z,8.17
2019-04-28T07:31:32.424Z,8.25
2019-04-28T07:34:03.000Z,8.21
2019-04-28T07:36:30.737Z,8.20
2019-04-28T07:38:59.004Z,8.05
2019-04-28T07:41:27.279Z,8.16
2019-04-28T07:43:55.557Z,8.15
2019-04-28T07:46:23.829Z,8.27
2019-04-28T07:48:52.539Z,8.34
2019-04-28T07:56:50.027Z,8.40
2019-04-28T07:59:18.300Z,8.17
2019-04-28T08:04:25.530Z,8.28
2019-04-28T08:06:53.797Z,8.23
2019-04-28T08:09:22.143Z,8.20
2019-04-28T08:11:50.408Z,8.16
2019-04-28T08:14:19.881Z,8.19
2019-04-28T08:16:48.693Z,8.12
2019-04-28T08:19:16.969Z,8.15
2019-04-28T08:21:45.236Z,8.13
2019-04-28T08:24:13.507Z,8.14
2019-04-28T08:26:41.848Z,8.15
2019-04-28T08:29:10.132Z,8.03
2019-04-28T08:37:06.334Z,8.15
2019-04-28T08:39:34.590Z,8.21
2019-04-28T08:42:02.881Z,8.21
2019-04-28T08:44:31.154Z,8.23
2019-04-28T08:46:59.437Z,8.26
2019-04-28T08:49:27.717Z,8.31
2019-04-28T08:51:55.979Z,8.45
2019-04-28T08:54:24.261Z,8.36
2019-04-28T08:56:52.523Z,8.35
2019-04-28T08:59:20.800Z,8.27
2019-04-28T09:01:49.075Z,8.42
2019-04-28T09:04:17.344Z,8.41
2019-04-28T09:06:45.620Z,8.51
2019-04-28T09:09:33.005Z,8.44
2019-04-28T09:12:01.275Z,8.39
2019-04-28T09:14:29.545Z,8.45
2019-04-28T09:16:57.825Z,8.53
2019-04-28T09:19:26.094Z,8.57
2019-04-28T09:21:54.383Z,8.48
2019-04-28T09:24:22.662Z,8.60
2019-04-28T09:26:50.948Z,8.70
2019-04-28T09:29:19.220Z,8.78
2019-04-28T09:31:47.511Z,8.64
2019-04-28T09:34:27.576Z,8.40
2019-04-28T09:36:45.809Z,8.47
2019-04-28T09:42:22.228Z,8.50
2019-04-28T09:44:50.515Z,8.49
2019-04-28T09:47:18.793Z,8.60
2019-04-28T09:49:47.076Z,8.53
2019-04-28T09:52:15.354Z,8.62
2019-04-28T09:54:43.633Z,8.74
2019-04-28T09:57:11.905Z,8.85
2019-04-28T09:59:40.186Z,8.78
2019-04-28T10:02:08.450Z,8.62
2019-04-28T10:04:41.599Z,8.78
2019-04-28T10:07:06.730Z,8.82
2019-04-28T10:09:34.991Z,8.73
2019-04-28T10:12:03.260Z,8.62
2019-04-28T10:14:31.564Z,8.68
2019-04-28T10:16:59.846Z,8.40
2019-04-28T10:19:28.112Z,8.58
2019-04-28T10:21:56.401Z,8.63
2019-04-28T10:24:24.669Z,8.54
2019-04-28T10:26:52.944Z,8.51
2019-04-28T10:29:21.216Z,8.68
2019-04-28T10:31:49.485Z,8.63
2019-04-28T10:34:17.771Z,8.63
2019-04-28T10:36:46.045Z,8.51
2019-04-28T10:39:33.440Z,8.62
2019-04-28T10:42:01.725Z,8.78
2019-04-28T10:47:43.054Z,8.96
2019-04-28T10:50:11.503Z,9.05
2019-04-28T10:52:39.764Z,9.02
2019-04-28T10:57:56.999Z,8.62
2019-04-28T11:03:04.230Z,8.88
2019-04-28T11:06:06.316Z,8.71
2019-04-28T11:08:53.695Z,8.67
2019-04-28T11:14:01.093Z,8.83
2019-04-28T11:19:18.299Z,8.97
2019-04-28T11:21:46.574Z,9.02
2019-04-28T11:24:14.836Z,8.82
2019-04-28T11:26:43.096Z,8.67
2019-04-28T11:32:00.336Z,8.85
2019-04-28T11:37:17.579Z,8.94
2019-04-28T11:39:46.022Z,9.21
2019-04-28T11:42:14.347Z,9.23
2019-04-28T11:44:42.635Z,9.23
2019-04-28T11:49:49.864Z,9.43
2019-04-28T11:52:18.128Z,9.24
2019-04-28T11:54:46.401Z,9.51
2019-04-28T11:57:14.666Z,9.50
2019-04-28T11:59:42.942Z,9.41
2019-04-28T12:02:11.205Z,9.37
2019-04-28T12:04:39.547Z,9.51
2019-04-28T12:07:07.813Z,9.55
2019-04-28T12:12:34.151Z,9.93
2019-04-28T12:15:21.530Z,9.84
2019-04-28T12:18:08.904Z,9.89
2019-04-28T12:20:37.241Z,9.72
2019-04-28T12:23:05.588Z,9.80
2019-04-28T12:25:33.856Z,9.50
2019-04-28T12:28:02.123Z,9.66
2019-04-28T12:30:30.384Z,9.57
2019-04-28T12:32:58.653Z,9.56
2019-04-28T12:35:26.922Z,9.47
2019-04-28T12:37:55.187Z,9.55
2019-04-28T12:40:23.458Z,9.86
2019-04-28T12:42:51.735Z,9.58
2019-04-28T12:45:19.991Z,9.60
2019-04-28T12:47:48.253Z,9.52
2019-04-28T12:53:24.816Z,9.68
2019-04-28T12:55:53.082Z,9.72
2019-04-28T12:58:21.347Z,9.90
2019-04-28T13:01:08.751Z,10.12
2019-04-28T13:06:25.979Z,10.31
2019-04-28T13:08:54.257Z,10.50
2019-04-28T13:11:22.531Z,10.26
2019-04-28T13:13:50.810Z,10.25
2019-04-28T13:16:19.083Z,10.47
2019-04-28T13:18:47.356Z,10.63
2019-04-28T13:21:15.617Z,10.31
2019-04-28T13:23:43.908Z,10.02
2019-04-28T13:26:12.156Z,10.07
2019-04-28T13:28:40.444Z,9.98
2019-04-28T13:31:08.712Z,10.06
2019-04-28T13:33:36.975Z,10.10
2019-04-28T13:36:14.661Z,10.21
2019-04-28T13:38:35.293Z,10.17
2019-04-28T13:41:03.557Z,10.17
2019-04-28T13:43:31.821Z,10.11
2019-04-28T13:46:00.110Z,10.13
2019-04-28T13:48:28.377Z,10.08
2019-04-28T13:50:56.707Z,10.15
2019-04-28T13:53:24.956Z,10.15
2019-04-28T14:01:30.340Z,10.18
2019-04-28T14:04:17.734Z,10.09
2019-04-28T14:07:05.145Z,10.13
2019-04-28T14:09:33.439Z,10.08
2019-04-28T14:12:01.723Z,10.02
2019-04-28T14:14:29.980Z,10.04
2019-04-28T14:17:17.594Z,10.25
2019-04-28T14:19:45.862Z,10.25
2019-04-28T14:22:14.139Z,10.41
2019-04-28T14:24:42.420Z,10.45
2019-04-28T14:27:10.744Z,10.50
2019-04-28T14:29:38.977Z,10.35
2019-04-28T14:32:07.252Z,10.31
2019-04-28T14:34:35.547Z,10.41
2019-04-28T14:37:03.900Z,10.45
2019-04-28T14:39:32.180Z,10.62
2019-04-28T14:42:00.490Z,10.68
2019-04-28T14:44:29.358Z,10.85
2019-04-28T14:46:57.647Z,11.17
2019-04-28T14:49:25.978Z,11.48
2019-04-28T14:52:13.583Z,10.70
2019-04-28T14:54:41.864Z,10.70
2019-04-28T14:57:10.133Z,11.16
2019-04-28T14:59:38.412Z,11.32
2019-04-28T15:02:25.792Z,11.30
2019-04-28T15:05:13.202Z,11.30
2019-04-28T15:10:49.630Z,11.50
2019-04-28T15:16:06.850Z,11.45
2019-04-28T15:18:35.125Z,11.59
2019-04-28T15:21:03.372Z,11.61
2019-04-28T15:23:31.613Z,11.21
2019-04-28T15:25:59.873Z,11.49
2019-04-28T15:28:28.127Z,11.74
2019-04-28T15:30:56.417Z,11.81
2019-04-28T15:33:24.689Z,11.93
2019-04-28T15:35:52.964Z,12.23
2019-04-28T15:38:21.241Z,12.28
2019-04-28T15:40:49.534Z,12.13
2019-04-28T15:43:17.808Z,12.12
2019-04-28T15:45:46.091Z,12.05
2019-04-28T15:48:14.368Z,12.02
2019-04-28T15:50:42.711Z,12.18
2019-04-28T15:53:10.972Z,11.83
2019-04-28T15:55:58.355Z,11.71
2019-04-28T15:58:45.758Z,11.75
2019-04-28T16:01:14.097Z,11.80
2019-04-28T16:03:43.168Z,11.85
2019-04-28T16:06:11.437Z,11.45
2019-04-28T16:08:39.703Z,11.39
2019-04-28T16:11:07.969Z,11.53
2019-04-28T16:13:36.247Z,11.38
2019-04-28T16:16:04.532Z,11.42
2019-04-28T16:18:32.806Z,11.45
2019-04-28T16:21:01.081Z,11.52
2019-04-28T16:23:29.348Z,11.69
2019-04-28T16:25:57.604Z,11.61
2019-04-28T16:28:25.902Z,11.68
2019-04-28T16:30:54.870Z,11.61
2019-04-28T16:33:23.132Z,11.69
2019-04-28T16:35:51.433Z,11.36
2019-04-28T16:38:19.700Z,11.35
2019-04-28T16:40:48.295Z,11.29
2019-04-28T16:43:16.899Z,11.31
2019-04-28T16:45:45.169Z,11.27
2019-04-28T16:48:13.437Z,11.31
2019-04-28T16:50:41.704Z,11.04
2019-04-28T16:53:09.998Z,11.10
2019-04-28T16:58:46.346Z,11.34
2019-04-28T17:01:33.725Z,11.29
2019-04-28T17:04:02.011Z,11.18
2019-04-28T17:06:30.288Z,11.29
2019-04-28T17:08:58.550Z,11.19
2019-04-28T17:11:26.837Z,11.25
2019-04-28T17:13:55.103Z,11.31
2019-04-28T17:16:23.390Z,11.36
2019-04-28T17:18:51.676Z,11.42
2019-04-28T17:21:19.968Z,11.32
2019-04-28T17:23:48.241Z,11.25
2019-04-28T17:26:16.508Z,11.20
2019-04-28T17:28:44.886Z,11.12
2019-04-28T17:31:13.220Z,11.11
2019-04-28T17:33:41.493Z,11.06
2019-04-28T17:36:09.756Z,11.02
2019-04-28T17:38:38.664Z,10.92
2019-04-28T17:41:07.101Z,10.97
2019-04-28T17:43:35.389Z,10.98
2019-04-28T17:51:31.557Z,10.81
2019-04-28T17:53:59.836Z,10.83
2019-04-28T17:56:28.104Z,10.81
2019-04-28T17:58:56.386Z,10.75
2019-04-28T18:01:43.775Z,10.77
2019-04-28T18:04:31.167Z,10.64
2019-04-28T18:09:38.397Z,10.68
2019-04-28T18:12:06.741Z,10.72
2019-04-28T18:17:43.096Z,10.63
2019-04-28T18:20:44.967Z,10.63
2019-04-28T18:23:13.253Z,10.63
2019-04-28T18:25:41.524Z,10.57
2019-04-28T18:28:09.866Z,10.35
2019-04-28T18:39:14.064Z,10.09
2019-04-28T18:42:01.484Z,10.11
2019-04-28T18:44:29.768Z,10.11
2019-04-28T18:46:58.066Z,10.03
2019-04-28T18:49:26.331Z,9.90
2019-04-28T18:51:54.609Z,9.90
2019-04-28T18:54:22.878Z,9.81
2019-04-28T18:56:51.160Z,9.81
2019-04-28T18:59:19.424Z,9.85
2019-04-28T19:04:26.639Z,9.78
2019-04-28T19:07:04.932Z,9.75
2019-04-28T19:09:44.041Z,9.53
2019-04-28T19:15:20.372Z,9.25
2019-04-28T19:20:27.630Z,8.98
2019-04-28T19:23:35.958Z,8.99
2019-04-28T19:26:04.233Z,9.05
2019-04-28T19:28:32.496Z,9.06
2019-04-28T19:31:00.772Z,8.98
2019-04-28T19:33:29.119Z,8.98
2019-04-28T19:35:57.342Z,8.94
2019-04-28T19:38:25.630Z,8.98
2019-04-28T19:40:53.888Z,9.01
2019-04-28T19:43:22.170Z,9.11
2019-04-28T19:48:39.386Z,8.90
2019-04-28T19:51:07.654Z,8.94
2019-04-28T19:53:35.913Z,8.96
2019-04-28T19:56:42.671Z,8.95
2019-04-28T19:59:30.061Z,8.92
2019-04-28T20:01:58.333Z,8.94
2019-04-28T20:04:26.587Z,8.82
2019-04-28T20:06:54.870Z,8.77
2019-04-28T20:09:23.206Z,8.58
2019-04-28T20:11:51.492Z,8.54
2019-04-28T20:14:39.139Z,8.62
2019-04-28T20:17:07.426Z,8.40
2019-04-28T20:19:35.686Z,8.40
2019-04-28T20:22:03.970Z,8.31
2019-04-28T20:24:32.264Z,8.28
2019-04-28T20:27:00.524Z,8.25
2019-04-28T20:29:28.791Z,8.22
2019-04-28T20:31:57.062Z,8.16
2019-04-28T20:34:25.498Z,8.12
2019-04-28T20:42:40.783Z,8.18
2019-04-28T20:47:58.078Z,8.10
2019-04-28T20:50:26.335Z,8.09
2019-04-28T20:52:54.602Z,8.15
2019-04-28T20:55:22.869Z,8.15
2019-04-28T20:57:51.154Z,8.14
2019-04-28T21:00:19.410Z,8.17
2019-04-28T21:02:47.751Z,8.12
2019-04-28T21:05:35.349Z,8.17
2019-04-28T21:08:03.631Z,8.23
2019-04-28T21:10:38.378Z,8.22
2019-04-28T21:13:01.977Z,8.08
2019-04-28T21:15:30.268Z,8.07
2019-04-28T21:17:58.550Z,8.03
2019-04-28T21:20:26.818Z,8.07
2019-04-28T21:22:55.080Z,8.11
2019-04-28T21:25:23.346Z,8.15
2019-04-28T21:27:51.610Z,8.17
2019-04-28T21:30:19.872Z,8.14
2019-04-28T21:32:48.149Z,8.16
2019-04-28T21:35:16.422Z,8.11
2019-04-28T21:37:44.676Z,8.08
2019-04-28T21:43:11.012Z,8.01
2019-04-28T21:45:58.405Z,8.09
2019-04-28T21:48:45.798Z,8.07
2019-04-28T21:51:14.132Z,8.04
2019-04-28T21:53:42.414Z,8.08
2019-04-28T21:56:10.677Z,8.08
2019-04-28T21:58:38.965Z,7.99
2019-04-28T22:01:47.269Z,7.90
2019-04-28T22:04:15.549Z,7.94
2019-04-28T22:06:43.821Z,8.00
2019-04-28T22:09:12.152Z,8.03
2019-04-28T22:11:40.431Z,8.01
2019-04-28T22:14:08.703Z,7.98
2019-04-28T22:16:37.114Z,7.78
2019-04-28T22:19:05.320Z,7.80
2019-04-28T22:21:33.602Z,7.88
2019-04-28T22:27:09.961Z,7.95
2019-04-28T22:29:38.233Z,7.88
2019-04-28T22:32:06.508Z,7.91
2019-04-28T22:34:34.783Z,7.92
2019-04-28T22:40:37.989Z,7.83
2019-04-28T22:43:06.244Z,7.79
2019-04-28T22:45:46.720Z,7.73
2019-04-28T22:51:03.968Z,7.78
2019-04-28T23:02:08.211Z,7.93
2019-04-28T23:07:25.439Z,7.83
2019-04-28T23:09:53.754Z,7.86
2019-04-28T23:12:22.040Z,7.96
2019-04-28T23:14:50.400Z,7.99
2019-04-28T23:19:57.639Z,7.85
2019-04-28T23:25:44.895Z,7.94
2019-04-28T23:28:13.162Z,7.87
2019-04-28T23:31:21.475Z,7.84
2019-04-28T23:33:49.745Z,7.87
2019-04-28T23:36:18.021Z,7.80
2019-04-28T23:38:46.312Z,7.78
2019-04-28T23:41:33.687Z,7.70
2019-04-28T23:44:01.955Z,7.65
2019-04-28T23:46:49.340Z,7.63
2019-04-28T23:49:17.633Z,7.66
2019-04-28T23:52:05.019Z,7.65
2019-04-28T23:57:12.240Z,7.60
2019-04-28T23:59:40.523Z,7.58
